Time;durP1;ratioP1;P1;durP2;ratioP2;P2;SDS_P1;SDS_P2;PMS_P1;PMS_P2;Temp;Humidity;BMP_temperature;BMP_pressure;BME280_temperature;BME280_humidity;BME280_pressure;Samples;Min_cycle;Max_cycle;Signal;HPM_P1;HPM_P2
2023/06/08 00:02:08;;;;;;;14.85;14.35;;;;;;;-141.02;100.00;55514.72;5113096;28;20284;-62
2023/06/08 00:04:35;;;;;;;14.75;14.25;;;;;;;-141.02;100.00;55075.41;5112994;28;20702;-65
2023/06/08 00:07:08;;;;;;;14.80;14.30;;;;;;;-141.02;100.00;54948.25;5112936;28;20283;-65
2023/06/08 00:09:35;;;;;;;14.82;14.32;;;;;;;-141.02;100.00;54927.03;5113836;28;20543;-59
2023/06/08 00:12:05;;;;;;;14.80;14.30;;;;;;;-141.02;100.00;54655.41;5112883;28;20547;-59
2023/06/08 00:14:32;;;;;;;14.40;13.90;;;;;;;-141.02;100.00;54651.53;5113342;28;20643;-59
2023/06/08 00:17:02;;;;;;;15.13;14.52;;;;;;;-141.02;100.00;54466.63;5113292;28;20228;-65
2023/06/08 00:19:29;;;;;;;15.13;14.52;;;;;;;-141.02;100.00;54177.66;5113086;28;20245;-64
2023/06/08 00:21:57;;;;;;;15.15;14.55;;;;;;;-141.02;100.00;54083.28;5112790;28;20228;-65
2023/06/08 00:24:24;;;;;;;15.20;14.60;;;;;;;-141.02;100.00;54062.09;5112586;28;20200;-65
2023/06/08 00:26:51;;;;;;;15.18;14.57;;;;;;;-141.02;100.00;53950.38;5113004;28;20197;-59
2023/06/08 00:29:20;;;;;;;15.32;14.73;;;;;;;-141.02;100.00;53823.25;5112638;28;20270;-60
2023/06/08 00:31:47;;;;;;;14.73;14.23;;;;;;;-141.02;100.00;53715.41;5112614;28;20192;-65
2023/06/08 00:34:14;;;;;;;14.85;14.35;;;;;;;-141.02;100.00;53673.03;5112592;28;20196;-63
2023/06/08 00:36:41;;;;;;;14.38;13.88;;;;;;;-141.02;100.00;53547.84;5112433;28;20203;-64
2023/06/08 00:39:08;;;;;;;14.55;14.05;;;;;;;-141.02;100.00;53476.59;5112616;28;20199;-65
2023/06/08 00:41:35;;;;;;;14.93;14.43;;;;;;;-141.02;100.00;53380.31;5112412;28;20228;-65
2023/06/08 00:44:02;;;;;;;14.85;14.35;;;;;;;-141.02;100.00;53287.88;5112463;28;20212;-62
2023/06/08 00:46:31;;;;;;;14.90;14.35;;;;;;;-141.02;100.00;53168.47;5112432;28;20315;-61
2023/06/08 00:48:58;;;;;;;15.18;14.57;;;;;;;-141.02;100.00;53110.72;5112469;28;20275;-59
2023/06/08 00:51:28;;;;;;;14.95;14.45;;;;;;;-141.02;100.00;53033.69;5112744;28;20199;-60
2023/06/08 00:53:56;;;;;;;14.73;14.23;;;;;;;-141.02;100.00;53006.72;5112723;28;20193;-65
2023/06/08 00:56:26;;;;;;;14.85;14.35;;;;;;;-141.02;100.00;52922.00;5112667;28;20200;-64
2023/06/08 00:58:55;;;;;;;14.57;14.07;;;;;;;-141.02;100.00;52860.41;5112416;28;20543;-65
2023/06/08 01:01:25;;;;;;;15.05;14.55;;;;;;;-141.02;100.00;52818.03;5112300;28;20698;-65
2023/06/08 01:03:55;;;;;;;14.05;13.55;;;;;;;-141.02;100.00;52717.91;5112555;28;20280;-65
2023/06/08 01:06:22;;;;;;;14.75;14.25;;;;;;;-141.02;100.00;52679.41;5112558;28;20277;-66
2023/06/08 01:08:59;;;;;;;14.85;14.35;;;;;;;-141.02;100.00;52625.50;5112303;28;20212;-62
2023/06/08 01:11:39;;;;;;;14.82;14.32;;;;;;;-141.02;100.00;52529.22;5112567;28;20235;-61
2023/06/08 01:14:18;;;;;;;15.30;14.70;;;;;;;-141.02;100.00;52494.56;5112474;28;20188;-59
2023/06/08 01:16:50;;;;;;;15.10;14.50;;;;;;;-141.02;100.00;52452.22;5112218;28;20712;-64
2023/06/08 01:19:36;;;;;;;14.82;14.32;;;;;;;-141.02;100.00;52417.56;5112151;28;20978;-65
2023/06/08 01:22:11;;;;;;;14.65;14.15;;;;;;;-141.02;100.00;52313.59;5112490;28;20217;-62
2023/06/08 01:24:49;;;;;;;14.70;14.20;;;;;;;-141.02;100.00;52384.84;5112385;28;20204;-58
2023/06/08 01:27:17;;;;;;;14.68;14.18;;;;;;;-141.02;100.00;52325.16;5112164;28;20647;-65
2023/06/08 01:29:44;;;;;;;14.40;13.90;;;;;;;-141.02;100.00;52294.34;5112038;28;20232;-64
2023/06/08 01:32:11;;;;;;;15.05;14.50;;;;;;;-141.02;100.00;52211.56;5112294;28;20216;-59
2023/06/08 01:34:40;;;;;;;14.70;14.20;;;;;;;-141.02;100.00;52184.63;5112307;28;20193;-59
2023/06/08 01:37:14;;;;;;;14.80;14.30;;;;;;;-141.02;100.00;52226.97;5112302;28;20235;-61
2023/06/08 01:39:49;;;;;;;14.60;14.10;;;;;;;-141.02;100.00;52163.44;5112278;28;20181;-60
2023/06/08 01:42:19;;;;;;;14.57;14.07;;;;;;;-141.02;100.00;52132.66;5111798;28;20235;-65
2023/06/08 01:44:53;;;;;;;13.85;13.35;;;;;;;-141.02;100.00;52024.84;5111862;28;20534;-62
2023/06/08 01:47:23;;;;;;;14.70;14.20;;;;;;;-141.02;100.00;52036.41;5112307;28;20189;-59
2023/06/08 01:49:52;;;;;;;14.90;14.40;;;;;;;-141.02;100.00;52078.75;5113986;28;20681;-59
2023/06/08 01:52:20;;;;;;;14.20;13.70;;;;;;;-141.02;100.00;52017.16;5115682;28;20285;-59
2023/06/08 01:54:48;;;;;;;15.32;14.73;;;;;;;-141.02;100.00;52182.69;5115518;28;20240;-64
2023/06/08 01:57:15;;;;;;;15.13;14.52;;;;;;;-141.02;100.00;51963.25;5115825;28;20280;-59
2023/06/08 01:59:42;;;;;;;15.23;14.63;;;;;;;-141.02;100.00;51972.88;5115746;28;20189;-60
2023/06/08 02:02:09;;;;;;;15.20;14.60;;;;;;;-141.02;100.00;51909.34;5115416;28;20235;-65
2023/06/08 02:04:36;;;;;;;15.20;14.60;;;;;;;-141.02;100.00;51878.56;5115364;28;20225;-66
2023/06/08 02:07:03;;;;;;;15.18;14.57;;;;;;;-141.02;100.00;51832.34;5115457;28;20271;-59
2023/06/08 02:09:30;;;;;;;14.68;14.18;;;;;;;-141.02;100.00;51770.75;5115289;28;20203;-60
2023/06/08 02:12:07;;;;;;;15.07;14.57;;;;;;;-141.02;100.00;51793.84;5115514;28;20281;-63
2023/06/08 02:14:34;;;;;;;14.65;14.15;;;;;;;-141.02;100.00;51766.91;5115210;28;20631;-64
2023/06/08 02:17:03;;;;;;;14.10;13.60;;;;;;;-141.02;100.00;51634.09;5115412;28;20222;-66
2023/06/08 02:19:31;;;;;;;14.65;14.15;;;;;;;-141.02;100.00;51741.88;5115344;28;20288;-61
2023/06/08 02:22:00;;;;;;;14.75;14.25;;;;;;;-141.02;100.00;51728.41;5115036;28;20673;-65
2023/06/08 02:24:27;;;;;;;14.07;13.57;;;;;;;-141.02;100.00;51732.25;5115032;28;20254;-59
2023/06/08 02:26:54;;;;;;;14.40;13.90;;;;;;;-141.02;100.00;51743.81;5115182;28;20289;-63
2023/06/08 02:29:23;;;;;;;14.50;14.00;;;;;;;-141.02;100.00;51749.59;5115132;28;20201;-60
2023/06/08 02:31:50;;;;;;;13.98;13.48;;;;;;;-141.02;100.00;51795.78;5114879;28;20264;-64
2023/06/08 02:34:17;;;;;;;13.95;13.45;;;;;;;-141.02;100.00;51934.38;5114752;28;20190;-60
2023/06/08 02:36:47;;;;;;;14.30;13.80;;;;;;;-141.02;100.00;52044.09;5114790;28;20280;-59
2023/06/08 02:39:15;;;;;;;13.25;12.85;;;;;;;-141.02;100.00;52167.31;5114761;28;20254;-59
2023/06/08 02:41:42;;;;;;;13.52;13.13;;;;;;;-141.02;100.00;52246.22;5114480;28;20689;-60
2023/06/08 02:44:09;;;;;;;13.95;13.45;;;;;;;-141.02;100.00;52429.13;5114939;28;20243;-61
2023/06/08 02:46:38;;;;;;;13.70;13.30;;;;;;;-141.02;100.00;52669.78;5114427;28;20311;-60
2023/06/08 02:49:05;;;;;;;13.80;13.40;;;;;;;-141.02;100.00;53091.47;5114554;28;20193;-59
2023/06/08 02:51:32;;;;;;;13.57;13.18;;;;;;;-141.02;100.00;53451.56;5114810;28;20291;-59
2023/06/08 02:53:59;;;;;;;13.32;12.93;;;;;;;-141.02;100.00;53827.13;5114505;28;20283;-64
2023/06/08 02:56:27;;;;;;;12.93;12.52;;;;;;;-141.02;100.00;54146.84;5114673;28;20281;-59
2023/06/08 02:58:54;;;;;;;13.10;12.70;;;;;;;-141.02;100.00;54391.47;5114291;28;20193;-60
2023/06/08 03:01:21;;;;;;;12.35;11.95;;;;;;;-141.02;100.00;54555.22;5114596;28;20197;-61
2023/06/08 03:03:51;;;;;;;12.52;12.13;;;;;;;-141.02;100.00;54686.22;5114557;28;20205;-61
2023/06/08 03:06:19;;;;;;;12.48;12.07;;;;;;;-141.02;100.00;54844.19;5114151;28;20224;-59
2023/06/08 03:08:47;;;;;;;12.50;12.10;;;;;;;-141.02;100.00;55079.25;5114425;28;20197;-63
2023/06/08 03:11:15;;;;;;;12.43;12.02;;;;;;;-141.02;100.00;55370.19;5114414;28;20211;-64
2023/06/08 03:13:42;;;;;;;12.32;11.93;;;;;;;-141.02;100.00;55480.03;5114403;28;20193;-58
2023/06/08 03:16:09;;;;;;;11.95;11.55;;;;;;;-141.02;100.00;55641.91;5113970;28;20233;-59
2023/06/08 03:18:36;;;;;;;11.95;11.60;;;;;;;-141.02;100.00;55826.91;5114282;28;20215;-59
2023/06/08 03:21:07;;;;;;;12.10;11.70;;;;;;;-141.02;100.00;55923.25;5113745;28;20689;-65
2023/06/08 03:23:35;;;;;;;11.30;11.00;;;;;;;-141.02;100.00;56110.22;5114116;28;20189;-64
2023/06/08 03:26:03;;;;;;;11.75;11.40;;;;;;;-141.02;100.00;56073.59;5113666;28;20286;-59
2023/06/08 03:28:30;;;;;;;12.07;11.68;;;;;;;-141.02;100.00;56189.22;5113775;28;20258;-59
2023/06/08 03:30:57;;;;;;;12.15;11.75;;;;;;;-141.02;100.00;56146.81;5113729;28;20228;-64
2023/06/08 03:33:24;;;;;;;12.38;11.98;;;;;;;-141.02;100.00;56339.56;5113909;28;20193;-61
2023/06/08 03:35:51;;;;;;;12.55;12.15;;;;;;;-141.02;100.00;56748.19;5113596;28;20199;-60
2023/06/08 03:38:19;;;;;;;12.57;12.18;;;;;;;-141.02;100.00;57052.78;5113970;28;20219;-64
2023/06/08 03:40:46;;;;;;;13.00;12.60;;;;;;;-141.02;100.00;57395.97;5113406;28;20196;-59
2023/06/08 03:43:13;;;;;;;14.60;14.10;;;;;;;-141.02;100.00;57330.41;5113860;28;20289;-59
2023/06/08 03:45:40;;;;;;;14.73;14.23;;;;;;;-141.02;100.00;57021.94;5113659;28;20225;-65
2023/06/08 03:48:07;;;;;;;14.82;14.32;;;;;;;-141.02;100.00;56827.25;5113637;28;20193;-64
2023/06/08 03:50:34;;;;;;;14.77;14.27;;;;;;;-141.02;100.00;56914.00;5113326;28;20586;-59
2023/06/08 03:53:01;;;;;;;15.75;15.15;;;;;;;-141.02;100.00;56935.19;5113318;28;20288;-58
2023/06/08 03:55:30;;;;;;;15.57;14.98;;;;;;;-141.02;100.00;57172.31;5113262;28;20193;-61
2023/06/08 03:57:57;;;;;;;15.02;14.43;;;;;;;-141.02;100.00;56815.69;5113141;28;20238;-64
2023/06/08 04:00:24;;;;;;;16.10;15.50;;;;;;;-141.02;100.00;56613.28;5113428;28;20242;-59
2023/06/08 04:02:51;;;;;;;16.25;15.65;;;;;;;-141.02;100.00;57004.59;5113115;28;20240;-60
2023/06/08 04:05:18;;;;;;;16.13;15.52;;;;;;;-141.02;100.00;57151.13;5113417;28;20193;-62
2023/06/08 04:07:47;;;;;;;16.67;15.98;;;;;;;-141.02;99.74;57033.50;5112966;28;20270;-59
2023/06/08 04:10:15;;;;;;;16.73;16.02;;;;;;;-141.02;98.49;57426.81;5113334;28;20646;-60
2023/06/08 04:12:43;;;;;;;17.17;16.38;;;;;;;-141.02;96.31;57804.72;5112857;28;20193;-59
2023/06/08 04:15:11;;;;;;;17.15;16.35;;;;;;;-141.02;94.48;57858.72;5112883;28;20285;-64
2023/06/08 04:17:41;;;;;;;17.33;16.52;;;;;;;-141.02;93.34;58097.84;5113108;28;20197;-64
2023/06/08 04:20:09;;;;;;;17.85;17.05;;;;;;;-141.02;91.94;58394.84;5112794;28;20673;-64
2023/06/08 04:22:36;;;;;;;17.88;17.08;;;;;;;-141.02;91.65;58738.16;5112864;28;20197;-59
2023/06/08 04:25:04;;;;;;;18.45;17.55;;;;;;;-141.02;87.93;58797.94;5112800;28;20288;-59
2023/06/08 04:27:32;;;;;;;18.90;18.00;;;;;;;-141.02;89.13;58743.94;5113042;28;20260;-60
2023/06/08 04:30:01;;;;;;;19.20;18.20;;;;;;;-141.02;86.79;59197.22;5113088;28;20254;-59
2023/06/08 04:32:28;;;;;;;19.48;18.48;;;;;;;-141.02;86.20;58716.94;5112637;28;20687;-60
2023/06/08 04:34:55;;;;;;;19.30;18.30;;;;;;;-141.02;84.48;58680.28;5112947;28;20232;-59
2023/06/08 04:37:22;;;;;;;19.65;18.65;;;;;;;-141.02;84.38;58545.28;5112520;28;20197;-61
2023/06/08 04:39:49;;;;;;;19.80;18.80;;;;;;;-141.02;84.10;59264.75;5112725;28;20197;-60
2023/06/08 04:42:17;;;;;;;19.00;18.00;;;;;;;-141.02;83.67;59305.25;5112361;28;20718;-64
2023/06/08 04:44:44;;;;;;;19.05;18.05;;;;;;;-141.02;80.89;60053.84;5112466;28;20192;-60
2023/06/08 04:47:14;;;;;;;20.08;19.08;;;;;;;-141.02;78.67;60698.38;5112788;28;20229;-60
2023/06/08 04:49:41;;;;;;;20.00;19.00;;;;;;;-141.02;77.32;60549.78;5112668;28;20201;-60
2023/06/08 04:52:12;;;;;;;20.05;19.05;;;;;;;-141.02;76.29;60177.34;5112443;28;20800;-60
2023/06/08 04:54:39;;;;;;;20.02;19.02;;;;;;;-141.02;76.54;59816.50;5112713;28;20274;-64
2023/06/08 04:57:09;;;;;;;20.58;19.58;;;;;;;-141.02;77.25;59737.41;5112709;28;20193;-64
2023/06/08 04:59:37;;;;;;;21.13;20.02;;;;;;;-141.02;77.64;59745.13;5112625;28;20200;-60
2023/06/08 05:02:04;;;;;;;20.35;19.35;;;;;;;-141.02;77.41;59544.47;5112589;28;20193;-63
2023/06/08 05:04:33;;;;;;;20.42;19.33;;;;;;;-141.02;77.73;59473.09;5112368;28;20201;-63
2023/06/08 05:07:00;;;;;;;20.58;19.48;;;;;;;-141.02;77.27;58630.13;5112274;28;20690;-65
2023/06/08 05:09:27;;;;;;;20.48;19.48;;;;;;;-141.02;77.74;58819.16;5112587;28;20193;-60
2023/06/08 05:11:54;;;;;;;20.17;19.17;;;;;;;-141.02;76.42;58552.97;5112200;28;20568;-60
2023/06/08 05:14:21;;;;;;;19.60;18.50;;;;;;;-141.02;75.58;57257.16;5112250;28;20232;-64
2023/06/08 05:16:48;;;;;;;20.67;19.63;;;;;;;-141.02;76.60;58128.69;5112502;28;20197;-64
2023/06/08 05:19:15;;;;;;;20.88;19.77;;;;;;;-141.02;76.71;57453.81;5112502;28;20197;-64
2023/06/08 05:21:43;;;;;;;20.75;19.65;;;;;;;-141.02;76.34;58171.13;5112502;28;20276;-60
2023/06/08 05:24:10;;;;;;;20.88;19.77;;;;;;;-141.02;75.76;57052.78;5113562;28;20571;-64
2023/06/08 05:26:39;;;;;;;20.80;19.70;;;;;;;-141.02;76.25;57455.72;5116349;28;20231;-60
2023/06/08 05:29:06;;;;;;;20.20;19.20;;;;;;;-141.02;77.47;57151.13;5116067;28;20207;-63
2023/06/08 05:31:33;;;;;;;20.55;19.45;;;;;;;-141.02;76.13;56655.69;5116260;28;20567;-60
2023/06/08 05:34:00;;;;;;;20.70;19.60;;;;;;;-141.02;76.08;56085.16;5116022;28;20659;-63
2023/06/08 05:36:27;;;;;;;20.83;19.77;;;;;;;-141.02;78.65;56543.88;5116194;28;20258;-60
2023/06/08 05:38:55;;;;;;;20.30;19.30;;;;;;;-141.02;77.42;56597.84;5115896;28;20284;-64
2023/06/08 05:41:22;;;;;;;18.58;17.58;;;;;;;-141.02;76.91;56079.38;5115787;28;20264;-65
2023/06/08 05:43:49;;;;;;;18.70;17.80;;;;;;;-141.02;78.06;56081.28;5116125;28;20300;-64
2023/06/08 05:46:16;;;;;;;19.10;18.10;;;;;;;-141.02;79.12;55911.69;5115707;28;20225;-60
2023/06/08 05:48:44;;;;;;;19.50;18.50;;;;;;;-141.02;79.69;56056.25;5115695;28;20275;-63
2023/06/08 05:51:11;;;;;;;19.67;18.67;;;;;;;-141.02;78.34;56381.97;5115928;28;20190;-64
2023/06/08 05:53:38;;;;;;;20.00;19.00;;;;;;;-141.02;78.01;56139.13;5116245;28;20201;-64
2023/06/08 05:56:06;;;;;;;19.95;18.95;;;;;;;-141.02;77.09;56557.38;5115526;28;20189;-63
2023/06/08 05:58:34;;;;;;;19.90;18.90;;;;;;;-141.02;75.28;56169.94;5115469;28;20687;-59
2023/06/08 06:01:04;;;;;;;20.13;19.05;;;;;;;-141.02;75.73;55761.38;5115774;28;20224;-63
2023/06/08 06:03:31;;;;;;;19.80;18.80;;;;;;;-141.02;77.69;56736.63;5115782;28;20239;-64
2023/06/08 06:05:59;;;;;;;20.33;19.23;;;;;;;-141.02;75.76;56011.91;5115301;28;20193;-63
2023/06/08 06:08:26;;;;;;;19.42;18.42;;;;;;;-141.02;77.12;56644.13;5115234;28;20230;-63
2023/06/08 06:10:53;;;;;;;20.33;19.23;;;;;;;-141.02;74.88;57228.22;5115205;28;20280;-60
2023/06/08 06:13:21;;;;;;;20.58;19.48;;;;;;;-141.02;73.93;56453.28;5115610;28;20193;-60
2023/06/08 06:15:48;;;;;;;20.58;19.48;;;;;;;-141.02;76.38;57525.16;5115174;28;20606;-65
2023/06/08 06:18:15;;;;;;;20.15;19.05;;;;;;;-141.02;74.27;56860.00;5115053;28;20203;-63
2023/06/08 06:20:42;;;;;;;20.23;19.13;;;;;;;-141.02;74.60;57102.91;5115389;28;20280;-63
2023/06/08 06:23:09;;;;;;;19.17;18.17;;;;;;;-141.02;73.96;57004.59;5115289;28;20296;-64
2023/06/08 06:25:36;;;;;;;20.17;19.10;;;;;;;-141.02;73.61;57297.63;5115794;28;20197;-61
2023/06/08 06:28:03;;;;;;;20.40;19.30;;;;;;;-141.02;72.12;57075.94;5115162;28;20256;-60
2023/06/08 06:30:32;;;;;;;20.60;19.50;;;;;;;-141.02;71.50;56617.13;5114813;28;20686;-65
2023/06/08 06:32:59;;;;;;;19.83;18.75;;;;;;;-141.02;73.40;56651.81;5114835;28;20236;-64
2023/06/08 06:35:26;;;;;;;20.40;19.30;;;;;;;-141.02;72.04;56104.44;5114429;28;20666;-62
2023/06/08 06:37:54;;;;;;;21.05;19.95;;;;;;;-141.02;73.10;56821.47;5114721;28;20235;-60
2023/06/08 06:40:22;;;;;;;20.27;19.17;;;;;;;-141.02;73.52;57554.06;5115028;28;20193;-65
2023/06/08 06:42:48;;;;;;;21.23;20.13;;;;;;;-141.02;70.25;56451.34;5114462;28;20229;-66
2023/06/08 06:45:15;;;;;;;22.63;21.42;;;;;;;-141.02;74.86;58011.06;5114640;28;20225;-61
2023/06/08 06:47:44;;;;;;;21.30;20.10;;;;;;;-141.02;70.98;56937.13;5114411;28;20267;-62
2023/06/08 06:50:11;;;;;;;21.92;20.73;;;;;;;-141.02;69.90;56848.44;5114605;28;20236;-64
2023/06/08 06:52:38;;;;;;;22.40;21.20;;;;;;;-141.02;70.44;56416.66;5114474;28;20189;-65
2023/06/08 06:55:05;;;;;;;21.30;20.20;;;;;;;-141.02;73.66;57507.78;5114405;28;20284;-60
2023/06/08 06:57:32;;;;;;;20.48;19.38;;;;;;;-141.02;73.08;57525.16;5114633;28;20212;-60
2023/06/08 07:00:00;;;;;;;21.63;20.45;;;;;;;-141.02;71.57;57110.63;5114638;28;20202;-64
2023/06/08 07:02:28;;;;;;;21.25;20.15;;;;;;;-141.02;72.01;58443.06;5114635;28;20193;-59
2023/06/08 07:04:58;;;;;;;21.35;20.25;;;;;;;-141.02;72.43;59421.00;5114490;28;20571;-60
2023/06/08 07:07:26;;;;;;;21.67;20.48;;;;;;;-141.02;70.13;58429.56;5114474;28;20223;-65
2023/06/08 07:09:53;;;;;;;21.92;20.73;;;;;;;-141.02;69.88;57881.88;5114303;27;20280;-60
2023/06/08 07:12:20;;;;;;;22.15;20.95;;;;;;;-141.02;69.66;58556.84;5114175;28;20232;-60
2023/06/08 07:14:47;;;;;;;21.70;20.50;;;;;;;-141.02;68.80;57573.34;5114126;28;20200;-60
2023/06/08 07:17:14;;;;;;;21.67;20.48;;;;;;;-141.02;70.40;57606.13;5114007;28;20250;-60
2023/06/08 07:19:45;;;;;;;22.20;21.00;;;;;;;-141.02;68.20;57191.59;5114294;28;20197;-64
2023/06/08 07:22:14;;;;;;;21.52;20.33;;;;;;;-141.02;72.45;58799.88;5114233;28;20234;-60
2023/06/08 07:24:41;;;;;;;21.00;19.80;;;;;;;-141.02;69.17;58419.91;5113861;27;20193;-64
2023/06/08 07:27:08;;;;;;;20.23;19.13;;;;;;;-141.02;71.50;59833.88;5113746;28;20705;-64
2023/06/08 07:29:36;;;;;;;21.20;20.00;;;;;;;-141.02;68.23;59135.50;5114079;28;20246;-66
2023/06/08 07:32:03;;;;;;;21.63;20.42;;;;;;;-141.02;69.49;58560.69;5113956;28;20197;-64
2023/06/08 07:34:31;;;;;;;23.55;22.35;;;;;;;-141.02;68.30;57515.50;5113640;28;20193;-64
2023/06/08 07:36:58;;;;;;;22.98;21.77;;;;;;;-141.02;71.06;58408.34;5113608;28;20233;-60
2023/06/08 07:39:26;;;;;;;23.13;21.92;;;;;;;-141.02;69.35;58425.69;5113830;28;20235;-63
2023/06/08 07:41:53;;;;;;;24.15;22.95;;;;;;;-141.02;68.03;58823.00;5113468;28;20221;-63
2023/06/08 07:44:20;;;;;;;22.90;21.60;;;;;;;-141.02;70.03;59899.47;5113426;28;20199;-62
2023/06/08 07:46:47;;;;;;;21.95;20.75;;;;;;;-141.02;67.59;60667.50;5112978;28;20606;-62
2023/06/08 07:49:14;;;;;;;24.10;22.90;;;;;;;-141.02;69.27;61358.47;5113381;28;20235;-61
2023/06/08 07:51:41;;;;;;;22.83;21.63;;;;;;;-141.02;67.80;60960.84;5113582;28;20292;-64
2023/06/08 07:54:08;;;;;;;23.58;22.30;;;;;;;-141.02;69.88;61207.91;5113309;28;20200;-61
2023/06/08 07:56:36;;;;;;;22.35;21.15;;;;;;;-141.02;72.60;62458.91;5113532;28;20225;-61
2023/06/08 07:59:03;;;;;;;22.25;21.05;;;;;;;-141.02;67.47;60860.50;5113599;28;20246;-60
2023/06/08 08:01:30;;;;;;;23.85;22.65;;;;;;;-141.02;66.04;60576.78;5113449;28;20276;-62
2023/06/08 08:03:58;;;;;;;23.67;22.48;;;;;;;-141.02;66.95;60532.41;5112998;28;20678;-64
2023/06/08 08:06:25;;;;;;;22.17;20.98;;;;;;;-141.02;67.70;61883.53;5113331;28;20197;-60
2023/06/08 08:08:52;;;;;;;21.70;20.50;;;;;;;-141.02;68.27;64344.00;5112963;28;20311;-66
2023/06/08 08:11:19;;;;;;;23.23;22.05;;;;;;;-141.02;65.33;61968.50;5113011;28;20228;-64
2023/06/08 08:13:47;;;;;;;22.75;21.65;;;;;;;-141.02;65.14;60158.03;5113011;28;20235;-60
2023/06/08 08:16:14;;;;;;;19.90;18.80;;;;;;;-141.02;68.16;64417.41;5113185;28;20199;-64
2023/06/08 08:18:41;;;;;;;21.52;20.33;;;;;;;-141.02;65.94;64170.13;5113187;28;20257;-61
2023/06/08 08:21:17;;;;;;;23.63;22.42;;;;;;;-141.02;63.40;63897.75;5112774;28;20200;-61
2023/06/08 08:23:45;;;;;;;22.92;21.73;;;;;;;-141.02;64.45;62883.72;5112854;28;20619;-61
2023/06/08 08:26:12;;;;;;;22.15;20.95;;;;;;;-141.02;63.92;62343.06;5113001;28;20201;-64
2023/06/08 08:28:44;;;;;;;21.77;20.58;;;;;;;-141.02;66.21;64378.78;5112690;28;20231;-61
2023/06/08 08:31:13;;;;;;;23.98;22.77;;;;;;;-141.02;66.70;65406.75;5112731;28;20311;-61
2023/06/08 08:33:40;;;;;;;24.17;22.98;;;;;;;-141.02;64.56;60733.09;5112982;28;20231;-64
2023/06/08 08:36:07;;;;;;;23.95;22.75;;;;;;;-141.02;66.30;63691.06;5112642;28;20275;-63
2023/06/08 08:38:35;;;;;;;22.58;21.27;;;;;;;-141.02;65.32;61698.22;5112889;28;20662;-61
2023/06/08 08:41:05;;;;;;;22.88;21.58;;;;;;;-141.02;62.74;61528.34;5112751;28;20307;-61
2023/06/08 08:43:38;;;;;;;25.20;23.90;;;;;;;-141.02;63.40;62736.97;5112639;28;20414;-63
2023/06/08 08:46:07;;;;;;;24.90;23.60;;;;;;;-141.02;63.72;62215.63;5112547;28;20192;-61
2023/06/08 08:48:42;;;;;;;21.42;20.23;;;;;;;-141.02;66.13;64912.06;5112695;28;20257;-61
2023/06/08 08:51:12;;;;;;;22.17;20.88;;;;;;;-141.02;63.72;64664.72;5112529;28;20650;-65
2023/06/08 08:53:40;;;;;;;24.70;23.40;;;;;;;-141.02;64.73;65159.41;5112847;28;20185;-64
2023/06/08 08:56:07;;;;;;;24.40;23.10;;;;;;;-141.02;64.52;64912.06;5112463;28;20203;-65
2023/06/08 08:58:35;;;;;;;22.13;20.83;;;;;;;-141.02;61.03;61524.47;5114538;28;20197;-63
2023/06/08 09:01:05;;;;;;;22.05;20.75;;;;;;;-141.02;60.63;62941.66;5116930;28;20200;-62
2023/06/08 09:03:32;;;;;;;24.25;22.95;;;;;;;-141.02;61.18;65901.53;5116847;28;20205;-64
2023/06/08 09:06:01;;;;;;;25.65;24.35;;;;;;;-141.02;58.44;63750.94;5116567;28;20311;-65
2023/06/08 09:08:28;;;;;;;22.98;21.67;;;;;;;-141.02;59.92;63776.03;5116404;28;20315;-65
2023/06/08 09:11:03;;;;;;;22.88;21.55;;;;;;;-141.02;59.05;63480.50;5116464;28;20224;-63
2023/06/08 09:13:31;;;;;;;22.50;21.20;;;;;;;-141.02;59.87;62628.84;5116775;28;20189;-62
2023/06/08 09:16:08;;;;;;;21.63;20.42;;;;;;;-141.02;61.91;62590.22;5116325;28;20666;-63
2023/06/08 09:18:36;;;;;;;22.60;21.30;;;;;;;-141.02;59.47;60704.16;5116637;28;20208;-65
2023/06/08 09:21:26;;;;;;;22.50;21.20;;;;;;;-141.02;61.84;64309.22;5116495;28;20205;-65
2023/06/08 09:24:12;;;;;;;22.23;21.00;;;;;;;-141.02;60.47;63316.34;5116517;28;20205;-65
2023/06/08 09:26:45;;;;;;;22.48;21.17;;;;;;;-141.02;60.79;63076.84;5116236;28;20189;-65
2023/06/08 09:29:30;;;;;;;22.65;21.35;;;;;;;-141.02;59.96;64005.91;5116013;28;20208;-67
2023/06/08 09:32:01;;;;;;;22.65;21.35;;;;;;;-141.02;62.24;65654.13;5116416;28;20189;-65
2023/06/08 09:34:30;;;;;;;23.77;22.38;;;;;;;-141.02;59.78;63835.94;5116252;28;20197;-65
2023/06/08 09:37:09;;;;;;;22.88;21.58;;;;;;;-141.02;61.90;66148.94;5116257;28;20197;-61
2023/06/08 09:39:40;;;;;;;21.70;20.40;;;;;;;-141.02;57.43;64664.72;5115825;28;20192;-66
2023/06/08 09:42:07;;;;;;;22.02;20.83;;;;;;;-141.02;59.47;65654.13;5115696;28;20235;-62
2023/06/08 09:44:35;;;;;;;22.83;21.52;;;;;;;-141.02;61.32;65654.13;5115799;28;20193;-63
2023/06/08 09:47:22;;;;;;;22.58;21.27;;;;;;;-141.02;58.76;61391.28;5116042;28;20195;-64
2023/06/08 09:49:50;;;;;;;22.75;21.35;;;;;;;-141.02;59.86;60949.28;5115875;28;20200;-61
2023/06/08 09:52:21;;;;;;;21.95;20.65;;;;;;;-141.02;60.94;63613.78;5115707;28;20655;-67
2023/06/08 09:54:48;;;;;;;22.60;21.30;;;;;;;-141.02;59.87;63768.31;5115654;28;20207;-65
2023/06/08 09:57:16;;;;;;;22.90;21.50;;;;;;;-141.02;59.46;62256.16;5115607;28;20197;-64
2023/06/08 09:59:47;;;;;;;23.63;22.23;;;;;;;-141.02;58.72;63540.38;5115754;28;20223;-64
2023/06/08 10:02:25;;;;;;;22.17;20.92;;;;;;;-141.02;62.16;66643.84;5115525;28;20193;-63
2023/06/08 10:04:55;;;;;;;22.88;21.58;;;;;;;-141.02;59.22;68128.91;5115765;28;20185;-65
2023/06/08 10:07:26;;;;;;;23.65;22.25;;;;;;;-141.02;58.56;63268.06;5115364;28;20185;-63
2023/06/08 10:09:59;;;;;;;23.20;21.80;;;;;;;-141.02;60.08;60671.34;5114851;28;20192;-62
2023/06/08 10:12:30;;;;;;;23.35;22.05;;;;;;;-141.02;61.54;61514.81;5115362;28;20547;-65
2023/06/08 10:14:58;;;;;;;23.30;21.90;;;;;;;-141.02;60.76;60258.38;5115219;28;20193;-62
2023/06/08 10:17:27;;;;;;;23.77;22.38;;;;;;;-141.02;62.04;60839.25;5115572;28;20226;-64
2023/06/08 10:19:54;;;;;;;22.83;21.52;;;;;;;-141.02;61.91;60957.00;5115014;28;20229;-65
2023/06/08 10:22:21;;;;;;;23.10;21.80;;;;;;;-141.02;61.96;60733.09;5115049;28;20693;-64
2023/06/08 10:24:50;;;;;;;22.88;21.58;;;;;;;-141.02;64.34;62331.47;5115349;28;20258;-67
2023/06/08 10:27:29;;;;;;;22.35;21.05;;;;;;;-141.02;61.95;61146.13;5115253;28;20283;-65
2023/06/08 10:29:57;;;;;;;23.73;22.33;;;;;;;-141.02;58.98;59741.28;5115247;28;20566;-64
2023/06/08 10:32:31;;;;;;;22.67;21.38;;;;;;;-141.02;60.82;60960.84;5114893;28;20254;-62
2023/06/08 10:34:59;;;;;;;23.30;22.00;;;;;;;-141.02;59.65;61578.53;5115220;28;20216;-61
2023/06/08 10:37:28;;;;;;;23.67;22.27;;;;;;;-141.02;60.45;60331.72;5115092;28;20231;-61
2023/06/08 10:39:58;;;;;;;23.13;21.73;;;;;;;-141.02;61.55;59685.31;5115037;28;20271;-64
2023/06/08 10:42:25;;;;;;;22.88;21.52;;;;;;;-141.02;62.05;61570.81;5114605;27;20229;-65
2023/06/08 10:44:57;;;;;;;22.77;21.48;;;;;;;-141.02;61.75;62914.63;5114727;28;20663;-62
2023/06/08 10:47:25;;;;;;;22.98;21.60;;;;;;;-141.02;58.76;62715.72;5115786;28;20228;-65
2023/06/08 10:50:02;;;;;;;23.60;22.20;;;;;;;-141.02;59.05;62953.25;5114746;28;20311;-64
2023/06/08 10:52:40;;;;;;;23.08;21.67;;;;;;;-141.02;54.88;62445.38;5114834;28;20250;-62
2023/06/08 10:55:12;;;;;;;23.73;22.33;;;;;;;-141.02;54.68;60953.13;5114479;28;20234;-62
2023/06/08 10:57:42;;;;;;;22.70;21.30;;;;;;;-141.02;53.15;62841.25;5114441;28;20653;-65
2023/06/08 11:00:45;;;;;;;24.20;22.70;;;;;;;-141.02;52.04;63362.69;5114629;28;20193;-64
2023/06/08 11:03:20;;;;;;;24.65;23.15;;;;;;;-141.02;53.21;60690.66;5114403;28;20650;-65
2023/06/08 11:05:53;;;;;;;23.15;21.75;;;;;;;-141.02;57.92;59233.88;5114288;28;20279;-65
2023/06/08 11:08:20;;;;;;;23.73;22.33;;;;;;;-141.02;60.92;58331.19;5114147;28;20219;-64